createdAt,value
2023-03-21T00:00:51.228Z,98247.98
2023-03-21T00:03:19.815Z,98245.86
2023-03-21T00:05:53.877Z,98242.21
2023-03-21T00:08:26.193Z,98239.15
2023-03-21T00:11:02.565Z,98237.84
2023-03-21T00:13:33.657Z,98235.83
2023-03-21T00:16:13.432Z,98233.30
2023-03-21T00:18:54.863Z,98233.79
2023-03-21T00:24:16.953Z,98229.58
2023-03-21T00:26:46.378Z,98231.61
2023-03-21T00:29:15.521Z,98232.66
2023-03-21T00:31:44.259Z,98232.86
2023-03-21T00:36:46.357Z,98230.47
2023-03-21T00:39:15.468Z,98228.17
2023-03-21T00:41:45.296Z,98222.30
2023-03-21T00:44:16.084Z,98218.08
2023-03-21T00:47:04.229Z,98216.63
2023-03-21T00:49:42.748Z,98214.92
2023-03-21T00:52:18.634Z,98213.95
2023-03-21T00:54:53.216Z,98214.96
2023-03-21T00:57:29.328Z,98211.13
2023-03-21T01:00:08.059Z,98207.98
2023-03-21T01:03:02.789Z,98206.62
2023-03-21T01:06:13.780Z,98206.34
2023-03-21T01:09:02.960Z,98202.82
2023-03-21T01:11:31.679Z,98197.75
2023-03-21T01:14:14.608Z,98194.69
2023-03-21T01:16:47.863Z,98196.16
2023-03-21T01:19:25.089Z,98193.85
2023-03-21T01:21:57.232Z,98194.32
2023-03-21T01:24:29.458Z,98189.86
2023-03-21T01:26:58.856Z,98192.00
2023-03-21T01:29:27.436Z,98190.95
2023-03-21T01:31:56.162Z,98188.70
2023-03-21T01:34:24.706Z,98186.18
2023-03-21T01:37:13.052Z,98183.69
2023-03-21T01:39:47.314Z,98181.30
2023-03-21T01:42:16.161Z,98182.35
2023-03-21T01:44:56.987Z,98176.80
2023-03-21T01:47:26.534Z,98180.14
2023-03-21T01:50:18.055Z,98178.79
2023-03-21T01:53:20.330Z,98178.31
2023-03-21T01:55:50.041Z,98175.84
2023-03-21T01:58:42.178Z,98177.96
2023-03-21T02:01:28.282Z,98178.62
2023-03-21T02:03:57.259Z,98176.85
2023-03-21T02:06:50.823Z,98177.23
2023-03-21T02:09:42.547Z,98179.66
2023-03-21T02:12:16.660Z,98178.89
2023-03-21T02:14:46.175Z,98171.95
2023-03-21T02:17:34.585Z,98174.25
2023-03-21T02:20:26.752Z,98173.23
2023-03-21T02:23:14.076Z,98176.13
2023-03-21T02:25:57.942Z,98172.84
2023-03-21T02:28:36.224Z,98178.05
2023-03-21T02:31:14.739Z,98179.26
2023-03-21T02:34:10.825Z,98181.14
2023-03-21T02:37:07.106Z,98178.59
2023-03-21T02:40:11.339Z,98178.20
2023-03-21T02:42:51.699Z,98179.36
2023-03-21T02:45:30.838Z,98180.08
2023-03-21T02:48:04.889Z,98175.63
2023-03-21T02:50:44.150Z,98177.29
2023-03-21T02:53:15.189Z,98179.13
2023-03-21T02:55:44.239Z,98178.34
2023-03-21T02:58:17.619Z,98178.42
2023-03-21T03:00:50.364Z,98177.16
2023-03-21T03:03:34.437Z,98174.78
2023-03-21T03:06:24.809Z,98174.48
2023-03-21T03:09:02.832Z,98177.19
2023-03-21T03:11:35.889Z,98177.23
2023-03-21T03:14:46.872Z,98179.77
2023-03-21T03:17:23.884Z,98182.11
2023-03-21T03:20:16.995Z,98178.44
2023-03-21T03:22:58.200Z,98179.83
2023-03-21T03:25:55.757Z,98175.86
2023-03-21T03:28:30.293Z,98173.95
2023-03-21T03:31:08.731Z,98172.05
2023-03-21T03:33:45.084Z,98175.66
2023-03-21T03:36:30.379Z,98175.77
2023-03-21T03:39:07.434Z,98173.41
2023-03-21T03:42:06.037Z,98173.23
2023-03-21T03:44:34.382Z,98175.41
2023-03-21T03:47:17.495Z,98172.23
2023-03-21T03:50:10.701Z,98176.23
2023-03-21T03:53:19.519Z,98174.73
2023-03-21T03:55:55.039Z,98173.13
2023-03-21T03:58:29.181Z,98172.09
2023-03-21T04:01:05.875Z,98170.63
2023-03-21T04:03:48.907Z,98166.33
2023-03-21T04:06:19.269Z,98168.00
2023-03-21T04:08:51.436Z,98166.42
2023-03-21T04:11:20.113Z,98167.73
2023-03-21T04:13:52.294Z,98167.70
2023-03-21T04:16:26.146Z,98164.94
2023-03-21T04:18:55.943Z,98162.79
2023-03-21T04:21:25.954Z,98165.36
2023-03-21T04:24:01.468Z,98163.77
2023-03-21T04:26:33.484Z,98167.15
2023-03-21T04:29:24.864Z,98169.03
2023-03-21T04:32:17.928Z,98167.29
2023-03-21T04:34:54.572Z,98167.73
2023-03-21T04:37:24.000Z,98167.52
2023-03-21T04:39:53.229Z,98165.81
2023-03-21T04:42:22.907Z,98164.28
2023-03-21T04:44:51.954Z,98163.38
2023-03-21T04:47:20.599Z,98162.94
2023-03-21T04:49:54.081Z,98167.08
2023-03-21T04:52:24.934Z,98164.80
2023-03-21T04:54:54.109Z,98164.55
2023-03-21T04:57:24.442Z,98165.33
2023-03-21T04:59:53.038Z,98164.77
2023-03-21T05:02:29.032Z,98169.31
2023-03-21T05:04:57.661Z,98172.84
2023-03-21T05:07:26.559Z,98171.08
2023-03-21T05:09:54.932Z,98168.48
2023-03-21T05:12:24.102Z,98166.27
2023-03-21T05:14:53.359Z,98165.73
2023-03-21T05:17:28.699Z,98165.02
2023-03-21T05:19:58.555Z,98165.48
2023-03-21T05:22:29.273Z,98170.17
2023-03-21T05:24:59.845Z,98172.16
2023-03-21T05:27:54.446Z,98176.95
2023-03-21T05:30:25.869Z,98176.81
2023-03-21T05:32:58.769Z,98179.75
2023-03-21T05:35:27.299Z,98178.42
2023-03-21T05:38:01.154Z,98179.25
2023-03-21T05:40:33.209Z,98177.74
2023-03-21T05:43:02.256Z,98176.48
2023-03-21T05:45:32.702Z,98172.45
2023-03-21T05:48:05.978Z,98173.09
2023-03-21T05:50:39.274Z,98170.77
2023-03-21T05:53:14.768Z,98175.54
2023-03-21T05:55:46.157Z,98182.07
2023-03-21T06:03:12.424Z,98187.05
2023-03-21T10:29:43.418Z,98199.10
2023-03-21T13:05:36.127Z,98150.18
2023-03-21T13:08:21.266Z,98152.56
2023-03-21T13:10:51.163Z,98154.45
2023-03-21T13:14:21.883Z,98154.53
2023-03-21T13:16:56.374Z,98151.52
2023-03-21T13:19:47.645Z,98152.54
2023-03-21T13:22:22.951Z,98149.69
2023-03-21T13:25:22.469Z,98149.11
2023-03-21T13:27:55.564Z,98151.30
2023-03-21T13:30:29.122Z,98147.27
2023-03-21T13:33:13.164Z,98147.36
2023-03-21T13:35:43.218Z,98149.38
2023-03-21T13:38:36.584Z,98150.86
2023-03-21T13:41:16.133Z,98149.34
2023-03-21T13:44:03.357Z,98149.23
2023-03-21T13:46:50.523Z,98147.68
2023-03-21T13:49:32.740Z,98151.27
2023-03-21T13:52:12.083Z,98148.39
2023-03-21T13:54:57.049Z,98154.77
2023-03-21T13:57:30.695Z,98161.02
2023-03-21T14:00:37.224Z,98170.23
2023-03-21T14:03:12.479Z,98175.16
2023-03-21T14:06:01.124Z,98179.50
2023-03-21T14:08:37.413Z,98177.63
2023-03-21T14:11:08.703Z,98175.40
2023-03-21T14:13:50.990Z,98178.68
2023-03-21T14:16:21.435Z,98177.33
2023-03-21T14:18:55.057Z,98174.74
2023-03-21T14:21:28.466Z,98173.44
2023-03-21T14:24:11.579Z,98170.88
2023-03-21T14:26:59.531Z,98169.77
2023-03-21T14:29:33.649Z,98168.30
2023-03-21T14:32:02.249Z,98169.98
2023-03-21T14:34:34.293Z,98163.98
2023-03-21T14:37:03.944Z,98163.23
2023-03-21T14:39:33.418Z,98157.63
2023-03-21T14:42:06.305Z,98160.19
2023-03-21T14:44:58.108Z,98155.86
2023-03-21T14:47:28.261Z,98157.02
2023-03-21T14:49:57.062Z,98160.07
2023-03-21T14:52:27.822Z,98160.17
2023-03-21T14:54:56.516Z,98161.86
2023-03-21T14:57:27.867Z,98158.05
2023-03-21T14:59:58.460Z,98162.16
2023-03-21T15:02:32.627Z,98164.79
2023-03-21T15:05:22.468Z,98164.45
2023-03-21T15:08:22.206Z,98168.52
2023-03-21T15:11:08.099Z,98171.83
2023-03-21T15:13:50.393Z,98174.54
2023-03-21T15:16:19.120Z,98180.02
2023-03-21T15:18:47.823Z,98185.14
2023-03-21T15:21:48.171Z,98182.35
2023-03-21T15:24:26.704Z,98188.81
2023-03-21T15:27:03.947Z,98190.29
2023-03-21T15:29:33.798Z,98193.98
2023-03-21T15:32:05.048Z,98193.56
2023-03-21T15:34:33.648Z,98194.80
2023-03-21T15:37:12.731Z,98199.19
2023-03-21T15:39:46.299Z,98197.54
2023-03-21T15:42:34.342Z,98202.52
2023-03-21T15:45:20.086Z,98203.52
2023-03-21T15:47:59.418Z,98201.61
2023-03-21T15:50:39.215Z,98204.80
2023-03-21T15:53:19.129Z,98205.23
2023-03-21T15:55:52.709Z,98206.59
2023-03-21T15:58:27.670Z,98207.52
2023-03-21T16:01:02.251Z,98207.38
2023-03-21T16:03:37.565Z,98207.34
2023-03-21T16:06:17.131Z,98210.02
2023-03-21T16:08:47.844Z,98210.86
2023-03-21T16:11:18.611Z,98215.50
2023-03-21T16:13:50.177Z,98212.17
2023-03-21T16:16:28.638Z,98216.52
2023-03-21T16:19:02.087Z,98216.04
2023-03-21T16:21:34.801Z,98217.13
2023-03-21T16:24:03.380Z,98220.93
2023-03-21T16:26:33.428Z,98222.55
2023-03-21T16:29:01.739Z,98223.00
2023-03-21T16:31:32.708Z,98229.54
2023-03-21T16:34:02.490Z,98227.67
2023-03-21T16:36:38.697Z,98229.41
2023-03-21T16:39:27.116Z,98231.39
2023-03-21T16:41:56.331Z,98230.92
2023-03-21T16:44:24.796Z,98234.84
2023-03-21T16:46:53.349Z,98235.33
2023-03-21T16:49:26.992Z,98236.89
2023-03-21T16:51:59.447Z,98235.60
2023-03-21T16:54:32.360Z,98237.38
2023-03-21T16:57:00.599Z,98239.43
2023-03-21T16:59:29.273Z,98241.28
2023-03-21T17:01:57.817Z,98248.82
2023-03-21T17:04:26.958Z,98246.22
2023-03-21T17:06:55.513Z,98251.46
2023-03-21T17:09:26.527Z,98249.60
2023-03-21T17:12:00.318Z,98252.88
2023-03-21T17:14:31.436Z,98258.23
2023-03-21T17:16:59.928Z,98256.71
2023-03-21T17:19:28.444Z,98258.32
2023-03-21T17:21:56.808Z,98263.92
2023-03-21T17:24:29.341Z,98266.41
2023-03-21T17:27:01.641Z,98269.60
2023-03-21T17:29:30.125Z,98271.22
2023-03-21T17:31:59.391Z,98274.05
2023-03-21T17:34:27.628Z,98275.85
2023-03-21T17:37:02.593Z,98277.40
2023-03-21T17:39:32.712Z,98273.89
2023-03-21T17:42:01.299Z,98279.13
2023-03-21T17:44:32.542Z,98276.65
2023-03-21T17:47:01.747Z,98277.38
2023-03-21T17:49:32.490Z,98278.17
2023-03-21T17:52:00.887Z,98275.83
2023-03-21T17:54:29.457Z,98277.86
2023-03-21T17:56:57.873Z,98285.07
2023-03-21T17:59:26.606Z,98285.27
2023-03-21T18:01:55.750Z,98285.95
2023-03-21T18:04:25.341Z,98286.89
2023-03-21T18:06:57.367Z,98285.39
2023-03-21T18:09:27.700Z,98287.54
2023-03-21T18:11:56.273Z,98290.13
2023-03-21T18:14:28.467Z,98291.22
2023-03-21T18:16:57.587Z,98291.19
2023-03-21T18:19:27.078Z,98289.66
2023-03-21T18:21:56.280Z,98292.48
2023-03-21T18:24:24.789Z,98291.95
2023-03-21T18:26:53.216Z,98292.86
2023-03-21T18:32:11.592Z,98295.06
2023-03-21T18:34:39.993Z,98298.77
2023-03-21T18:37:10.024Z,98301.08
2023-03-21T18:39:39.943Z,98301.48
2023-03-21T18:42:16.794Z,98300.92
2023-03-21T18:44:48.210Z,98304.42
2023-03-21T18:47:16.934Z,98305.63
2023-03-21T18:50:12.568Z,98305.71
2023-03-21T18:52:38.934Z,98309.92
2023-03-21T18:55:09.063Z,98306.54
2023-03-21T18:57:38.858Z,98309.05
2023-03-21T19:00:13.938Z,98311.20
2023-03-21T19:02:47.133Z,98312.00
2023-03-21T19:05:26.180Z,98311.60
2023-03-21T19:14:29.768Z,98315.39
2023-03-21T19:17:47.558Z,98316.66
2023-03-21T19:19:49.587Z,98319.05
2023-03-21T19:22:18.244Z,98318.98
2023-03-21T19:24:47.165Z,98321.63
2023-03-21T19:27:16.355Z,98322.52
2023-03-21T19:30:03.002Z,98318.80
2023-03-21T19:32:36.148Z,98321.17
2023-03-21T19:35:05.162Z,98321.58
2023-03-21T19:37:36.185Z,98321.86
2023-03-21T19:40:06.017Z,98325.70
2023-03-21T19:42:36.479Z,98327.28
2023-03-21T19:45:10.033Z,98326.57
2023-03-21T19:47:39.601Z,98323.70
2023-03-21T19:50:47.719Z,98325.34
2023-03-21T19:53:00.954Z,98324.88
2023-03-21T19:55:29.617Z,98330.21
2023-03-21T19:58:00.558Z,98328.46
2023-03-21T20:00:30.484Z,98331.77
2023-03-21T20:02:59.850Z,98334.22
2023-03-21T20:05:28.966Z,98334.83
2023-03-21T20:07:57.662Z,98336.70
2023-03-21T20:10:27.901Z,98333.92
2023-03-21T20:13:00.039Z,98330.45
2023-03-21T20:15:30.566Z,98335.83
2023-03-21T20:18:04.377Z,98340.30
2023-03-21T20:20:33.784Z,98339.04
2023-03-21T20:23:08.142Z,98340.53
2023-03-21T20:25:41.433Z,98340.52
2023-03-21T20:28:20.063Z,98337.09
2023-03-21T20:30:57.281Z,98339.06
2023-03-21T20:33:26.790Z,98337.55
2023-03-21T20:36:37.363Z,98338.14
2023-03-21T20:38:56.016Z,98339.61
2023-03-21T20:41:24.400Z,98338.15
2023-03-21T20:46:56.933Z,98338.91
2023-03-21T20:49:28.484Z,98337.73
2023-03-21T20:54:47.626Z,98340.20
2023-03-21T20:57:18.629Z,98338.80
2023-03-21T20:59:47.968Z,98336.48
2023-03-21T21:02:17.225Z,98336.30
2023-03-21T21:05:15.676Z,98338.45
2023-03-21T21:07:36.351Z,98332.57
2023-03-21T21:10:10.171Z,98338.60
2023-03-21T21:12:39.581Z,98337.66
2023-03-21T21:15:08.690Z,98339.10
2023-03-21T21:20:25.765Z,98339.93
2023-03-21T21:23:00.184Z,98340.54
2023-03-21T21:25:32.367Z,98342.52
2023-03-21T21:28:02.299Z,98342.23
2023-03-21T21:30:38.271Z,98343.63
2023-03-21T21:33:07.230Z,98343.74
2023-03-21T21:35:36.043Z,98345.72
2023-03-21T21:38:04.915Z,98345.36
2023-03-21T21:40:36.549Z,98349.40
2023-03-21T21:43:13.076Z,98348.05
2023-03-21T21:45:42.312Z,98351.40
2023-03-21T21:48:11.958Z,98355.73
2023-03-21T21:50:41.811Z,98352.71
2023-03-21T21:53:13.380Z,98358.34
2023-03-21T21:55:42.191Z,98357.77
2023-03-21T21:58:13.645Z,98360.17
2023-03-21T22:00:43.025Z,98357.16
2023-03-21T22:03:12.584Z,98362.04
2023-03-21T22:05:41.313Z,98362.60
2023-03-21T22:08:12.537Z,98363.46
2023-03-21T22:10:41.408Z,98359.05
2023-03-21T22:13:09.849Z,98360.98
2023-03-21T22:15:42.225Z,98364.73
2023-03-21T22:18:11.416Z,98367.32
2023-03-21T22:20:40.054Z,98364.74
2023-03-21T22:23:08.892Z,98364.92
2023-03-21T22:25:38.887Z,98361.52
2023-03-21T22:28:07.774Z,98364.39
2023-03-21T22:30:38.068Z,98364.36
2023-03-21T22:33:09.889Z,98365.52
2023-03-21T22:35:43.047Z,98363.99
2023-03-21T22:38:14.375Z,98362.52
2023-03-21T22:40:42.661Z,98370.14
2023-03-21T22:43:14.633Z,98376.78
2023-03-21T22:45:46.756Z,98382.08
2023-03-21T22:55:12.756Z,98378.20
2023-03-21T22:57:41.492Z,98381.73
2023-03-21T23:00:16.231Z,98380.12
2023-03-21T23:02:44.793Z,98382.06
2023-03-21T23:05:13.810Z,98381.33
2023-03-21T23:07:44.821Z,98382.25
2023-03-21T23:10:13.527Z,98380.66
2023-03-21T23:12:41.978Z,98378.61
2023-03-21T23:15:17.923Z,98378.98
2023-03-21T23:17:46.724Z,98381.63
2023-03-21T23:20:15.107Z,98380.52
2023-03-21T23:22:46.338Z,98379.70
2023-03-21T23:25:14.731Z,98381.14
2023-03-21T23:27:43.817Z,98375.89
2023-03-21T23:30:12.404Z,98374.65
2023-03-21T23:32:41.099Z,98376.80
2023-03-21T23:35:13.361Z,98377.65
2023-03-21T23:37:52.520Z,98378.55
2023-03-21T23:40:21.435Z,98379.10
2023-03-21T23:42:49.792Z,98377.04
2023-03-21T23:45:18.234Z,98377.37
2023-03-21T23:47:51.088Z,98374.79
2023-03-21T23:50:19.367Z,98376.39
2023-03-21T23:52:50.266Z,98380.45
2023-03-21T23:55:18.940Z,98377.30
2023-03-21T23:57:47.399Z,98379.80
